Time;durP1;ratioP1;P1;durP2;ratioP2;P2;SDS_P1;SDS_P2;PMS_P1;PMS_P2;Temp;Humidity;BMP_temperature;BMP_pressure;BME280_temperature;BME280_humidity;BME280_pressure;Samples;Min_cycle;Max_cycle;Signal;HPM_P1;HPM_P2
2024/01/28 00:01:38;;;;;;;;;19.75;18.50;;;;;;;;4942936;28;45571;-63
2024/01/28 00:04:04;;;;;;;;;19.67;18.00;;;;;;;;4960410;28;45219;-63
2024/01/28 00:06:29;;;;;;;;;21.00;18.75;;;;;;;;4942591;28;47331;-63
2024/01/28 00:08:54;;;;;;;;;18.00;15.67;;;;;;;;4955396;28;45420;-63
2024/01/28 00:11:19;;;;;;;;;23.67;20.33;;;;;;;;4924069;28;45713;-63
2024/01/28 00:13:44;;;;;;;;;31.67;25.67;;;;;;;;4941145;28;45728;-64
2024/01/28 00:16:16;;;;;;;;;25.00;25.00;;;;;;;;4941478;28;48260;-63
2024/01/28 00:18:42;;;;;;;;;16.25;14.00;;;;;;;;4954129;28;45282;-63
2024/01/28 00:21:07;;;;;;;;;18.75;17.00;;;;;;;;4935860;28;45650;-64
2024/01/28 00:23:32;;;;;;;;;17.50;16.50;;;;;;;;4944979;28;45484;-63
2024/01/28 00:25:58;;;;;;;;;16.75;14.00;;;;;;;;4959791;28;46274;-64
2024/01/28 00:28:23;;;;;;;;;18.75;16.75;;;;;;;;4939588;28;45310;-63
2024/01/28 00:30:48;;;;;;;;;16.00;14.33;;;;;;;;4945500;28;45457;-64
2024/01/28 00:33:14;;;;;;;;;18.25;13.75;;;;;;;;4959113;28;45308;-63
2024/01/28 00:35:39;;;;;;;;;15.50;12.75;;;;;;;;4959534;28;46035;-63
2024/01/28 00:38:04;;;;;;;;;13.00;12.33;;;;;;;;4959251;28;45364;-64
2024/01/28 00:40:29;;;;;;;;;19.50;18.25;;;;;;;;4935179;28;45372;-63
2024/01/28 00:42:54;;;;;;;;;29.67;22.00;;;;;;;;4958386;28;45766;-63
2024/01/28 00:45:20;;;;;;;;;26.00;23.25;;;;;;;;4959617;28;45615;-63
2024/01/28 00:47:45;;;;;;;;;22.00;19.00;;;;;;;;4959554;28;45483;-63
2024/01/28 00:50:10;;;;;;;;;17.00;14.25;;;;;;;;4957942;28;45457;-63
2024/01/28 00:52:36;;;;;;;;;19.00;17.00;;;;;;;;4961982;28;45363;-63
2024/01/28 00:55:01;;;;;;;;;17.00;15.25;;;;;;;;4945531;28;46876;-63
2024/01/28 00:57:26;;;;;;;;;17.00;15.00;;;;;;;;4962729;28;45506;-63
2024/01/28 00:59:51;;;;;;;;;15.00;12.33;;;;;;;;4962488;28;45429;-63
2024/01/28 01:02:16;;;;;;;;;19.00;14.00;;;;;;;;4962837;28;45445;-63
2024/01/28 01:04:42;;;;;;;;;13.33;12.00;;;;;;;;4944957;28;47186;-63
2024/01/28 01:07:07;;;;;;;;;17.67;15.33;;;;;;;;4962774;28;45443;-63
2024/01/28 01:09:32;;;;;;;;;15.00;15.00;;;;;;;;4956442;28;45450;-63
2024/01/28 01:11:57;;;;;;;;;14.67;13.00;;;;;;;;4946085;28;45528;-63
2024/01/28 01:14:22;;;;;;;;;17.25;16.50;;;;;;;;4945119;28;47386;-63
2024/01/28 01:16:48;;;;;;;;;26.25;22.50;;;;;;;;4962731;28;45360;-64
2024/01/28 01:19:13;;;;;;;;;31.00;23.50;;;;;;;;4934372;28;45471;-63
2024/01/28 01:21:38;;;;;;;;;21.00;17.33;;;;;;;;4961602;28;45606;-63
2024/01/28 01:24:03;;;;;;;;;16.67;14.00;;;;;;;;4962815;28;46087;-63
2024/01/28 01:26:29;;;;;;;;;18.50;17.00;;;;;;;;4962401;28;45591;-63
2024/01/28 01:28:54;;;;;;;;;17.00;15.00;;;;;;;;4954287;28;45430;-63
2024/01/28 01:31:19;;;;;;;;;23.00;16.67;;;;;;;;4941811;28;45412;-63
2024/01/28 01:33:45;;;;;;;;;17.00;14.00;;;;;;;;4945058;28;47076;-64
2024/01/28 01:36:10;;;;;;;;;12.25;11.25;;;;;;;;4961316;28;45287;-63
2024/01/28 01:38:36;;;;;;;;;12.50;12.00;;;;;;;;4943724;28;45605;-63
2024/01/28 01:41:01;;;;;;;;;19.50;14.25;;;;;;;;4962407;28;45437;-63
2024/01/28 01:43:26;;;;;;;;;18.33;16.00;;;;;;;;4962110;28;45366;-64
2024/01/28 01:45:54;;;;;;;;;22.00;20.33;;;;;;;;4944774;28;45448;-63
2024/01/28 01:48:20;;;;;;;;;28.75;28.50;;;;;;;;4953158;28;45455;-63
2024/01/28 01:50:45;;;;;;;;;26.50;24.75;;;;;;;;4942608;28;45456;-63
2024/01/28 01:53:10;;;;;;;;;24.33;23.00;;;;;;;;4962248;28;46430;-63
2024/01/28 01:55:37;;;;;;;;;17.00;17.00;;;;;;;;4962036;28;45353;-63
2024/01/28 01:58:03;;;;;;;;;15.25;15.25;;;;;;;;4943881;28;45457;-63
2024/01/28 02:00:28;;;;;;;;;19.75;17.00;;;;;;;;4943781;28;45534;-63
2024/01/28 02:02:54;;;;;;;;;14.33;12.00;;;;;;;;4962170;28;45684;-63
2024/01/28 02:05:19;;;;;;;;;13.33;13.33;;;;;;;;4962013;28;45384;-64
2024/01/28 02:07:44;;;;;;;;;12.33;12.00;;;;;;;;4941524;28;45653;-63
2024/01/28 02:10:09;;;;;;;;;13.75;13.00;;;;;;;;4974394;28;45391;-63
2024/01/28 02:12:35;;;;;;;;;16.50;14.25;;;;;;;;4961431;28;46561;-64
2024/01/28 02:15:07;;;;;;;;;14.75;13.50;;;;;;;;4944274;28;46030;-63
2024/01/28 02:17:33;;;;;;;;;25.25;18.75;;;;;;;;4942929;28;45395;-63
2024/01/28 02:19:58;;;;;;;;;28.50;20.25;;;;;;;;4961761;28;45445;-63
2024/01/28 02:22:23;;;;;;;;;18.00;16.25;;;;;;;;4953743;28;47229;-63
2024/01/28 02:24:50;;;;;;;;;16.33;12.33;;;;;;;;4965554;28;45459;-63
2024/01/28 02:27:15;;;;;;;;;15.50;12.50;;;;;;;;4943383;28;45518;-63
2024/01/28 02:29:40;;;;;;;;;14.00;11.33;;;;;;;;4944362;28;45409;-63
2024/01/28 02:32:05;;;;;;;;;16.67;13.00;;;;;;;;4943733;28;47639;-63
2024/01/28 02:34:30;;;;;;;;;17.00;13.67;;;;;;;;4961699;28;45409;-63
2024/01/28 02:36:56;;;;;;;;;18.67;14.00;;;;;;;;4943447;28;45363;-63
2024/01/28 02:39:21;;;;;;;;;11.75;11.75;;;;;;;;4961553;28;45456;-63
2024/01/28 02:41:46;;;;;;;;;17.33;13.00;;;;;;;;4961561;28;45509;-63
2024/01/28 02:44:11;;;;;;;;;9.67;6.33;;;;;;;;4961290;28;45327;-63
2024/01/28 02:46:37;;;;;;;;;16.67;11.00;;;;;;;;4958717;28;45235;-63
2024/01/28 02:49:02;;;;;;;;;15.00;12.67;;;;;;;;4957841;28;45437;-63
2024/01/28 02:51:27;;;;;;;;;24.33;21.00;;;;;;;;4960363;28;46341;-63
2024/01/28 02:53:52;;;;;;;;;23.67;18.00;;;;;;;;4943802;28;45270;-63
2024/01/28 02:56:17;;;;;;;;;29.00;20.33;;;;;;;;4943602;28;45559;-63
2024/01/28 02:58:43;;;;;;;;;16.33;13.33;;;;;;;;4939040;28;45847;-63
2024/01/28 03:01:08;;;;;;;;;13.33;12.33;;;;;;;;4961332;28;45309;-63
2024/01/28 03:03:33;;;;;;;;;12.25;7.75;;;;;;;;4927827;28;45383;-63
2024/01/28 03:05:58;;;;;;;;;15.25;12.00;;;;;;;;4943948;28;45275;-63
2024/01/28 03:08:24;;;;;;;;;13.00;12.00;;;;;;;;4962242;28;45382;-64
2024/01/28 03:10:59;;;;;;;;;13.67;13.67;;;;;;;;4972025;28;45442;-63
2024/01/28 03:13:27;;;;;;;;;11.50;11.00;;;;;;;;4942945;28;45905;-63
2024/01/28 03:15:56;;;;;;;;;14.00;12.50;;;;;;;;4961106;28;45453;-63
2024/01/28 03:18:21;;;;;;;;;16.00;14.25;;;;;;;;4941941;28;45637;-63
2024/01/28 03:20:49;;;;;;;;;23.50;19.25;;;;;;;;4960132;28;45419;-63
2024/01/28 03:23:14;;;;;;;;;29.75;24.00;;;;;;;;4965472;28;45559;-64
2024/01/28 03:25:45;;;;;;;;;24.25;18.50;;;;;;;;4943551;28;45502;-63
2024/01/28 03:28:12;;;;;;;;;11.50;11.50;;;;;;;;4958719;28;45503;-63
2024/01/28 03:30:38;;;;;;;;;9.25;8.25;;;;;;;;4952348;28;46752;-63
2024/01/28 03:33:03;;;;;;;;;7.75;7.75;;;;;;;;4943182;28;45486;-63
2024/01/28 03:35:28;;;;;;;;;8.50;8.25;;;;;;;;4960761;28;45290;-63
2024/01/28 03:37:54;;;;;;;;;15.75;9.25;;;;;;;;4960268;28;45488;-63
2024/01/28 03:40:19;;;;;;;;;12.75;11.75;;;;;;;;4960614;28;45602;-63
2024/01/28 03:42:47;;;;;;;;;9.25;9.25;;;;;;;;4960066;28;45402;-63
2024/01/28 03:45:13;;;;;;;;;0.00;0.00;;;;;;;;4960871;28;45464;-63
2024/01/28 03:47:38;;;;;;;;;11.75;11.00;;;;;;;;4950060;28;45458;-63
2024/01/28 03:50:04;;;;;;;;;12.25;10.50;;;;;;;;4960561;28;45601;-63
2024/01/28 03:52:29;;;;;;;;;21.75;18.25;;;;;;;;4960324;28;45369;-63
2024/01/28 03:54:57;;;;;;;;;24.75;21.50;;;;;;;;4960564;28;45309;-63
2024/01/28 03:57:23;;;;;;;;;22.25;20.50;;;;;;;;4950006;28;45578;-63
2024/01/28 03:59:48;;;;;;;;;12.25;11.00;;;;;;;;4960437;28;45418;-63
2024/01/28 04:02:18;;;;;;;;;12.00;11.00;;;;;;;;4960323;28;45314;-63
2024/01/28 04:04:44;;;;;;;;;9.75;8.00;;;;;;;;4960655;28;45473;-63
2024/01/28 04:07:09;;;;;;;;;11.75;11.00;;;;;;;;4935623;28;45574;-63
2024/01/28 04:09:39;;;;;;;;;12.50;11.50;;;;;;;;4971557;28;45603;-63
2024/01/28 04:12:04;;;;;;;;;14.50;13.50;;;;;;;;4959870;28;45323;-63
2024/01/28 04:14:30;;;;;;;;;16.25;14.75;;;;;;;;4942817;28;45547;-63
2024/01/28 04:16:57;;;;;;;;;12.50;11.25;;;;;;;;4953186;28;45495;-63
2024/01/28 04:19:23;;;;;;;;;14.00;12.75;;;;;;;;4958142;28;46248;-63
2024/01/28 04:21:48;;;;;;;;;8.00;8.00;;;;;;;;4964678;28;45377;-63
2024/01/28 04:24:14;;;;;;;;;11.75;10.25;;;;;;;;4968021;28;45522;-63
2024/01/28 04:26:39;;;;;;;;;18.25;16.00;;;;;;;;4959465;28;45509;-63
2024/01/28 04:29:04;;;;;;;;;16.00;16.00;;;;;;;;4959773;28;45457;-63
2024/01/28 04:31:30;;;;;;;;;11.50;11.50;;;;;;;;4959917;28;45316;-63
2024/01/28 04:33:57;;;;;;;;;12.00;12.00;;;;;;;;4960004;28;45250;-63
2024/01/28 04:36:25;;;;;;;;;14.75;11.50;;;;;;;;4959084;28;45381;-63
2024/01/28 04:38:51;;;;;;;;;15.00;10.00;;;;;;;;4959822;28;46504;-63
2024/01/28 04:41:16;;;;;;;;;13.25;11.25;;;;;;;;4959648;28;45565;-63
2024/01/28 04:43:41;;;;;;;;;10.00;10.00;;;;;;;;4959744;28;45563;-63
2024/01/28 04:46:07;;;;;;;;;7.00;7.00;;;;;;;;4954346;28;45495;-63
2024/01/28 04:48:32;;;;;;;;;12.00;10.50;;;;;;;;4950767;28;45548;-63
2024/01/28 04:50:57;;;;;;;;;13.50;10.00;;;;;;;;4959583;28;45377;-63
2024/01/28 04:53:23;;;;;;;;;12.75;11.75;;;;;;;;4942417;28;45449;-63
2024/01/28 04:55:48;;;;;;;;;12.25;10.50;;;;;;;;4958813;28;45453;-63
2024/01/28 04:58:16;;;;;;;;;21.25;13.25;;;;;;;;4951882;28;45477;-63
2024/01/28 05:00:41;;;;;;;;;19.25;16.50;;;;;;;;4959442;28;45282;-63
2024/01/28 05:03:09;;;;;;;;;21.25;21.25;;;;;;;;4959714;28;45314;-63
2024/01/28 05:05:36;;;;;;;;;19.00;13.50;;;;;;;;4958692;28;45496;-63
2024/01/28 05:08:04;;;;;;;;;13.25;12.50;;;;;;;;4959245;28;45651;-63
2024/01/28 05:10:29;;;;;;;;;11.75;8.00;;;;;;;;4971892;28;45320;-63
2024/01/28 05:12:55;;;;;;;;;11.00;9.50;;;;;;;;4959363;28;45263;-63
2024/01/28 05:15:22;;;;;;;;;9.25;8.50;;;;;;;;4958802;28;45563;-63
2024/01/28 05:17:47;;;;;;;;;9.75;7.50;;;;;;;;4958536;28;45640;-63
2024/01/28 05:20:14;;;;;;;;;15.00;10.00;;;;;;;;4959353;28;45499;-63
2024/01/28 05:22:43;;;;;;;;;12.00;12.00;;;;;;;;4971099;28;45624;-63
2024/01/28 05:25:09;;;;;;;;;11.50;11.25;;;;;;;;4955542;28;45441;-63
2024/01/28 05:27:36;;;;;;;;;13.00;12.25;;;;;;;;4951309;28;45688;-63
2024/01/28 05:30:03;;;;;;;;;14.00;10.25;;;;;;;;4959140;28;45330;-63
2024/01/28 05:32:28;;;;;;;;;15.50;15.00;;;;;;;;4959460;28;45339;-63
2024/01/28 05:34:56;;;;;;;;;16.00;15.00;;;;;;;;4958462;28;45324;-63
2024/01/28 05:37:22;;;;;;;;;22.75;20.25;;;;;;;;4961683;28;45560;-63
2024/01/28 05:39:47;;;;;;;;;11.75;11.00;;;;;;;;4962538;28;45413;-63
2024/01/28 05:42:13;;;;;;;;;14.50;12.25;;;;;;;;4944951;28;45686;-63
2024/01/28 05:44:38;;;;;;;;;11.25;11.25;;;;;;;;4944020;28;45806;-63
2024/01/28 05:47:03;;;;;;;;;12.50;12.50;;;;;;;;4961474;28;46625;-63
2024/01/28 05:49:29;;;;;;;;;12.25;10.75;;;;;;;;4960751;28;45322;-63
2024/01/28 05:51:56;;;;;;;;;13.00;11.75;;;;;;;;4961901;28;45414;-63
2024/01/28 05:54:21;;;;;;;;;11.50;9.00;;;;;;;;4961816;28;45488;-63
2024/01/28 05:56:47;;;;;;;;;11.25;8.50;;;;;;;;4955172;28;46337;-63
2024/01/28 05:59:13;;;;;;;;;12.00;10.75;;;;;;;;4944691;28;45348;-63
2024/01/28 06:01:38;;;;;;;;;17.50;14.50;;;;;;;;4962399;28;45455;-63
2024/01/28 06:04:06;;;;;;;;;20.50;19.50;;;;;;;;4962144;28;45508;-63
2024/01/28 06:06:31;;;;;;;;;27.75;26.25;;;;;;;;4940081;28;46630;-63
2024/01/28 06:09:04;;;;;;;;;25.25;24.50;;;;;;;;4968375;28;45504;-63
2024/01/28 06:11:30;;;;;;;;;16.75;16.50;;;;;;;;4949978;28;45477;-63
2024/01/28 06:13:55;;;;;;;;;19.75;12.00;;;;;;;;4961530;28;45575;-63
2024/01/28 06:16:20;;;;;;;;;15.75;12.25;;;;;;;;4961247;28;45538;-63
2024/01/28 06:18:45;;;;;;;;;15.25;11.50;;;;;;;;4959198;28;45484;-63
2024/01/28 06:21:11;;;;;;;;;8.00;8.00;;;;;;;;4943816;28;45441;-63
2024/01/28 06:23:37;;;;;;;;;10.75;10.75;;;;;;;;4974845;28;45468;-63
2024/01/28 06:26:02;;;;;;;;;16.00;13.25;;;;;;;;4960897;28;46346;-63
2024/01/28 06:28:32;;;;;;;;;12.00;11.00;;;;;;;;4955664;28;45376;-63
2024/01/28 06:30:58;;;;;;;;;16.00;15.25;;;;;;;;4961881;28;45478;-63
2024/01/28 06:33:23;;;;;;;;;24.25;20.00;;;;;;;;4961864;28;45310;-63
2024/01/28 06:35:49;;;;;;;;;38.50;32.75;;;;;;;;4955934;28;47478;-63
2024/01/28 06:38:14;;;;;;;;;28.50;25.00;;;;;;;;4961803;28;45319;-63
2024/01/28 06:40:42;;;;;;;;;24.50;19.25;;;;;;;;4961660;28;45428;-63
2024/01/28 06:43:07;;;;;;;;;14.75;12.75;;;;;;;;4961293;28;45403;-63
2024/01/28 06:45:32;;;;;;;;;15.50;11.25;;;;;;;;4953406;28;45514;-63
2024/01/28 06:47:57;;;;;;;;;14.50;13.25;;;;;;;;4943633;28;45359;-65
2024/01/28 06:50:23;;;;;;;;;12.50;11.50;;;;;;;;4961536;28;45524;-65
2024/01/28 06:52:48;;;;;;;;;12.25;12.25;;;;;;;;4961524;28;45397;-65
2024/01/28 06:55:14;;;;;;;;;15.50;14.00;;;;;;;;4955241;28;45535;-66
2024/01/28 06:57:42;;;;;;;;;10.50;10.50;;;;;;;;4959379;28;45456;-65
2024/01/28 07:00:10;;;;;;;;;15.00;13.50;;;;;;;;4961400;28;45400;-65
2024/01/28 07:02:36;;;;;;;;;20.00;18.00;;;;;;;;4961256;28;45464;-65
2024/01/28 07:05:01;;;;;;;;;19.50;16.00;;;;;;;;4960406;28;46175;-65
2024/01/28 07:07:26;;;;;;;;;11.75;11.75;;;;;;;;4960874;28;45553;-65
2024/01/28 07:09:52;;;;;;;;;29.00;22.50;;;;;;;;4957755;28;45356;-65
2024/01/28 07:12:17;;;;;;;;;14.25;12.25;;;;;;;;4960818;28;45457;-65
2024/01/28 07:14:42;;;;;;;;;16.50;14.75;;;;;;;;4960318;28;45576;-65
2024/01/28 07:17:08;;;;;;;;;16.50;11.75;;;;;;;;4961121;28;45377;-65
2024/01/28 07:19:35;;;;;;;;;13.25;11.75;;;;;;;;4943723;28;45418;-65
2024/01/28 07:22:00;;;;;;;;;18.50;13.50;;;;;;;;4959969;28;45385;-65
2024/01/28 07:24:26;;;;;;;;;9.00;9.00;;;;;;;;4941958;28;48192;-65
2024/01/28 07:26:51;;;;;;;;;14.75;13.75;;;;;;;;4942250;28;45578;-65
2024/01/28 07:29:16;;;;;;;;;17.00;14.00;;;;;;;;4956547;28;45386;-74
2024/01/28 07:31:41;;;;;;;;;15.00;14.00;;;;;;;;4960537;28;45650;-73
2024/01/28 07:34:07;;;;;;;;;13.25;11.75;;;;;;;;4960501;28;45919;-73
2024/01/28 07:36:35;;;;;;;;;18.25;18.25;;;;;;;;4959447;28;45404;-74
2024/01/28 07:39:03;;;;;;;;;23.75;20.50;;;;;;;;4960553;28;45421;-74
2024/01/28 07:41:34;;;;;;;;;48.25;38.50;;;;;;;;4942838;28;45548;-74
2024/01/28 07:44:00;;;;;;;;;28.00;25.50;;;;;;;;4960023;28;46255;-74
2024/01/28 07:46:25;;;;;;;;;20.75;18.25;;;;;;;;4960267;28;45496;-74
2024/01/28 07:49:07;;;;;;;;;19.00;15.00;;;;;;;;4943061;28;45460;-74
2024/01/28 07:51:40;;;;;;;;;21.00;18.75;;;;;;;;4960595;28;45535;-75
2024/01/28 07:54:05;;;;;;;;;12.00;11.75;;;;;;;;4959509;28;45476;-75
2024/01/28 07:56:30;;;;;;;;;13.33;11.33;;;;;;;;4960088;28;45492;-75
2024/01/28 07:58:56;;;;;;;;;20.67;19.00;;;;;;;;4941758;28;45442;-76
2024/01/28 08:01:21;;;;;;;;;12.67;12.67;;;;;;;;4942959;28;45487;-75
2024/01/28 08:03:46;;;;;;;;;12.75;12.75;;;;;;;;4942680;28;46929;-65
2024/01/28 08:06:12;;;;;;;;;21.67;15.67;;;;;;;;4960040;28;45263;-63
2024/01/28 08:08:37;;;;;;;;;16.25;16.00;;;;;;;;4960007;28;45538;-64
2024/01/28 08:11:02;;;;;;;;;19.67;16.67;;;;;;;;4959218;28;45318;-63
2024/01/28 08:13:28;;;;;;;;;18.00;16.00;;;;;;;;4935326;28;47995;-64
2024/01/28 08:16:01;;;;;;;;;17.75;16.75;;;;;;;;4958226;28;45678;-65
2024/01/28 08:18:26;;;;;;;;;19.50;18.00;;;;;;;;4940945;28;45698;-64
2024/01/28 08:20:52;;;;;;;;;19.00;16.00;;;;;;;;4955381;28;45299;-64
2024/01/28 08:23:17;;;;;;;;;18.00;16.00;;;;;;;;4960233;28;46095;-64
2024/01/28 08:25:42;;;;;;;;;21.00;13.33;;;;;;;;4959963;28;45553;-64
2024/01/28 08:28:07;;;;;;;;;21.00;17.67;;;;;;;;4959613;28;45471;-64
2024/01/28 08:30:32;;;;;;;;;19.67;17.33;;;;;;;;4959994;28;45610;-64
2024/01/28 08:32:58;;;;;;;;;19.67;15.00;;;;;;;;4959886;28;45681;-64
2024/01/28 08:35:23;;;;;;;;;39.67;35.33;;;;;;;;4936695;28;45498;-64
2024/01/28 08:37:48;;;;;;;;;62.00;48.67;;;;;;;;4959693;28;45295;-64
2024/01/28 08:40:14;;;;;;;;;36.00;31.33;;;;;;;;4954050;28;45440;-64
2024/01/28 08:42:39;;;;;;;;;24.00;20.25;;;;;;;;4959213;28;45672;-64
2024/01/28 08:45:05;;;;;;;;;21.33;18.33;;;;;;;;4959044;28;45589;-64
2024/01/28 08:47:30;;;;;;;;;14.25;14.25;;;;;;;;4942162;28;46056;-64
2024/01/28 08:49:55;;;;;;;;;12.33;11.67;;;;;;;;4959907;28;45470;-64
2024/01/28 08:52:23;;;;;;;;;18.25;17.00;;;;;;;;4959496;28;46146;-64
2024/01/28 08:54:48;;;;;;;;;20.25;19.75;;;;;;;;4959722;28;45736;-64
2024/01/28 08:57:13;;;;;;;;;19.00;17.00;;;;;;;;4959432;28;45291;-64
2024/01/28 08:59:39;;;;;;;;;16.00;15.75;;;;;;;;4959455;28;45522;-64
2024/01/28 09:02:04;;;;;;;;;20.67;16.00;;;;;;;;4942072;28;47142;-62
2024/01/28 09:04:29;;;;;;;;;30.00;25.00;;;;;;;;4956719;28;45378;-62
2024/01/28 09:06:55;;;;;;;;;40.75;34.50;;;;;;;;4939466;28;45395;-62
2024/01/28 09:09:20;;;;;;;;;44.50;38.00;;;;;;;;4969004;28;45458;-62
2024/01/28 09:11:45;;;;;;;;;18.75;17.00;;;;;;;;4964754;28;45323;-62
2024/01/28 09:14:11;;;;;;;;;16.67;15.67;;;;;;;;4962778;28;45479;-64
2024/01/28 09:16:36;;;;;;;;;21.75;20.00;;;;;;;;4945528;28;45500;-64
2024/01/28 09:19:03;;;;;;;;;15.67;15.33;;;;;;;;4962043;28;45303;-64
2024/01/28 09:21:29;;;;;;;;;20.75;19.25;;;;;;;;4962413;28;47240;-64
2024/01/28 09:23:54;;;;;;;;;18.00;15.25;;;;;;;;4940702;28;45509;-65
2024/01/28 09:26:20;;;;;;;;;29.25;21.75;;;;;;;;4955409;28;45429;-64
2024/01/28 09:28:45;;;;;;;;;18.75;17.25;;;;;;;;4951779;28;45504;-63
2024/01/28 09:31:11;;;;;;;;;33.75;30.00;;;;;;;;4961866;28;45568;-62
2024/01/28 09:33:36;;;;;;;;;35.75;29.25;;;;;;;;4955619;28;45619;-62
2024/01/28 09:36:01;;;;;;;;;19.00;15.25;;;;;;;;4964846;28;45503;-62
2024/01/28 09:38:26;;;;;;;;;22.50;20.75;;;;;;;;4948928;28;45617;-62
2024/01/28 09:40:52;;;;;;;;;19.25;16.25;;;;;;;;4957783;28;45413;-63
2024/01/28 09:43:28;;;;;;;;;21.25;20.00;;;;;;;;4960798;28;45563;-63
2024/01/28 09:45:53;;;;;;;;;22.25;19.00;;;;;;;;4961345;28;45626;-62
2024/01/28 09:48:19;;;;;;;;;22.00;17.33;;;;;;;;4955753;28;45449;-62
2024/01/28 09:50:45;;;;;;;;;24.00;20.50;;;;;;;;4954508;28;45637;-62
2024/01/28 09:53:12;;;;;;;;;20.00;17.00;;;;;;;;4958663;28;45427;-63
2024/01/28 09:55:38;;;;;;;;;15.25;15.25;;;;;;;;4960428;28;45663;-61
2024/01/28 09:58:03;;;;;;;;;25.00;23.00;;;;;;;;4945133;28;45432;-61
2024/01/28 10:00:29;;;;;;;;;29.50;27.25;;;;;;;;4955929;28;48484;-61
2024/01/28 10:02:54;;;;;;;;;29.75;26.50;;;;;;;;4945294;28;45287;-62
2024/01/28 10:05:19;;;;;;;;;32.33;28.00;;;;;;;;4959995;28;45821;-63
2024/01/28 10:07:47;;;;;;;;;22.67;21.00;;;;;;;;4960941;28;45400;-62
2024/01/28 10:10:13;;;;;;;;;19.25;16.50;;;;;;;;4965065;28;46513;-63
2024/01/28 10:12:38;;;;;;;;;23.25;19.25;;;;;;;;4942098;28;45450;-61
2024/01/28 10:15:12;;;;;;;;;20.50;19.50;;;;;;;;4961860;28;46020;-62
2024/01/28 10:17:37;;;;;;;;;20.75;20.75;;;;;;;;4947492;28;45352;-62
2024/01/28 10:20:07;;;;;;;;;23.00;20.00;;;;;;;;4959979;28;46553;-65
2024/01/28 10:22:32;;;;;;;;;22.25;20.00;;;;;;;;4965896;28;45443;-64
2024/01/28 10:24:57;;;;;;;;;24.33;22.33;;;;;;;;4950432;28;45388;-61
2024/01/28 10:27:22;;;;;;;;;26.00;25.67;;;;;;;;4960130;28;45302;-61
2024/01/28 10:29:48;;;;;;;;;36.00;36.00;;;;;;;;4957988;28;45730;-61
2024/01/28 10:32:13;;;;;;;;;37.75;32.75;;;;;;;;4939190;28;45409;-61
2024/01/28 10:34:39;;;;;;;;;38.00;35.00;;;;;;;;4935568;28;45485;-61
2024/01/28 10:37:05;;;;;;;;;24.00;22.25;;;;;;;;4944878;28;45948;-61
2024/01/28 10:39:34;;;;;;;;;23.25;20.50;;;;;;;;4960273;28;45986;-60
2024/01/28 10:41:59;;;;;;;;;23.50;23.25;;;;;;;;4956602;28;45457;-61
2024/01/28 10:44:25;;;;;;;;;22.00;20.00;;;;;;;;4973243;28;45305;-61
2024/01/28 10:46:57;;;;;;;;;25.50;22.75;;;;;;;;4959884;28;45330;-60
2024/01/28 10:49:30;;;;;;;;;22.00;20.50;;;;;;;;4968694;28;45428;-61
2024/01/28 10:51:57;;;;;;;;;27.00;22.25;;;;;;;;4959059;28;45556;-61
2024/01/28 10:54:23;;;;;;;;;28.50;27.75;;;;;;;;4959941;28;45477;-61
2024/01/28 10:56:49;;;;;;;;;31.25;28.75;;;;;;;;4959679;28;45472;-61
2024/01/28 10:59:15;;;;;;;;;31.25;30.00;;;;;;;;4960225;28;45499;-61
2024/01/28 11:01:41;;;;;;;;;30.75;28.00;;;;;;;;4943896;28;45368;-61
2024/01/28 11:04:06;;;;;;;;;24.50;21.75;;;;;;;;4959577;28;45298;-61
2024/01/28 11:06:31;;;;;;;;;27.50;23.50;;;;;;;;4971899;28;45299;-61
2024/01/28 11:08:58;;;;;;;;;26.00;22.25;;;;;;;;4959915;28;45376;-61
2024/01/28 11:11:23;;;;;;;;;17.00;16.25;;;;;;;;4948043;28;45419;-61
2024/01/28 11:13:49;;;;;;;;;23.00;20.75;;;;;;;;4959927;28;45500;-61
2024/01/28 11:16:15;;;;;;;;;19.75;16.75;;;;;;;;4962460;28;45388;-61
2024/01/28 11:18:40;;;;;;;;;25.75;23.50;;;;;;;;4960233;28;45611;-61
2024/01/28 11:21:13;;;;;;;;;24.50;22.75;;;;;;;;4959753;28;45434;-61
2024/01/28 11:23:43;;;;;;;;;27.25;25.75;;;;;;;;4942891;28;45340;-61
2024/01/28 11:26:11;;;;;;;;;37.25;34.75;;;;;;;;4959477;28;45504;-61
2024/01/28 11:28:36;;;;;;;;;34.25;30.50;;;;;;;;4941558;28;48199;-61
2024/01/28 11:31:02;;;;;;;;;29.00;26.33;;;;;;;;4959701;28;45346;-61
2024/01/28 11:33:33;;;;;;;;;17.50;15.25;;;;;;;;4959597;28;45543;-61
2024/01/28 11:36:01;;;;;;;;;27.75;25.75;;;;;;;;4957989;28;45534;-61
2024/01/28 11:38:31;;;;;;;;;27.75;24.50;;;;;;;;4959212;28;46715;-61
2024/01/28 11:40:57;;;;;;;;;34.25;32.50;;;;;;;;4956530;28;45495;-62
2024/01/28 11:43:23;;;;;;;;;24.25;20.50;;;;;;;;4956231;28;45366;-61
2024/01/28 11:45:48;;;;;;;;;25.75;21.00;;;;;;;;4936682;28;45708;-61
2024/01/28 11:48:14;;;;;;;;;24.00;19.25;;;;;;;;4949807;28;46987;-61
2024/01/28 11:50:39;;;;;;;;;26.00;22.50;;;;;;;;4958357;28;45457;-62
2024/01/28 11:53:05;;;;;;;;;25.25;23.00;;;;;;;;4958227;28;45798;-61
2024/01/28 11:55:30;;;;;;;;;24.00;23.00;;;;;;;;4959197;28;45333;-61
2024/01/28 11:57:55;;;;;;;;;25.25;21.25;;;;;;;;4957824;28;46161;-61
2024/01/28 12:00:21;;;;;;;;;24.00;21.33;;;;;;;;4941288;28;46288;-62
2024/01/28 12:02:46;;;;;;;;;23.75;21.25;;;;;;;;4959565;28;45352;-61
2024/01/28 12:05:11;;;;;;;;;25.67;21.33;;;;;;;;4958785;28;45331;-61
2024/01/28 12:07:37;;;;;;;;;23.67;22.67;;;;;;;;4941422;28;46414;-62
2024/01/28 12:10:05;;;;;;;;;24.25;22.00;;;;;;;;4968588;28;45550;-62
2024/01/28 12:12:34;;;;;;;;;13.25;12.00;;;;;;;;4951270;28;45405;-62
2024/01/28 12:14:59;;;;;;;;;19.50;15.25;;;;;;;;4936141;28;45599;-61
2024/01/28 12:17:25;;;;;;;;;21.25;18.75;;;;;;;;4942281;28;47156;-62
2024/01/28 12:19:50;;;;;;;;;28.50;28.50;;;;;;;;4959003;28;45311;-62
2024/01/28 12:22:15;;;;;;;;;40.50;35.50;;;;;;;;4949662;28;45710;-62
2024/01/28 12:24:44;;;;;;;;;27.00;25.00;;;;;;;;4945811;28;45706;-62
2024/01/28 12:27:10;;;;;;;;;26.00;24.50;;;;;;;;4950605;28;45643;-62
2024/01/28 12:29:35;;;;;;;;;22.67;20.33;;;;;;;;4941865;28;45463;-61
2024/01/28 12:32:00;;;;;;;;;25.00;21.00;;;;;;;;4945725;28;45466;-62
2024/01/28 12:34:26;;;;;;;;;25.00;23.00;;;;;;;;4954392;28;45463;-62
2024/01/28 12:36:51;;;;;;;;;28.00;24.25;;;;;;;;4955942;28;45812;-62
2024/01/28 12:39:17;;;;;;;;;25.00;22.33;;;;;;;;4959143;28;45555;-62
2024/01/28 12:41:42;;;;;;;;;24.00;23.00;;;;;;;;4949626;28;45405;-61
2024/01/28 12:44:07;;;;;;;;;35.00;31.33;;;;;;;;4935250;28;45705;-61
2024/01/28 12:46:33;;;;;;;;;20.33;19.33;;;;;;;;4958815;28;45448;-61
2024/01/28 12:48:59;;;;;;;;;33.00;30.75;;;;;;;;4958237;28;45421;-61
2024/01/28 12:51:24;;;;;;;;;28.75;25.75;;;;;;;;4959199;28;45611;-62
2024/01/28 12:53:51;;;;;;;;;27.33;26.67;;;;;;;;4945056;28;45450;-62
2024/01/28 12:56:16;;;;;;;;;21.25;20.50;;;;;;;;4934425;28;47118;-61
2024/01/28 12:58:42;;;;;;;;;26.50;21.50;;;;;;;;4944433;28;45369;-61
2024/01/28 13:01:09;;;;;;;;;18.75;17.25;;;;;;;;4958455;28;45700;-61
2024/01/28 13:03:34;;;;;;;;;25.75;20.75;;;;;;;;4944615;28;45400;-61
2024/01/28 13:05:59;;;;;;;;;22.50;21.00;;;;;;;;4958650;28;46459;-62
2024/01/28 13:08:25;;;;;;;;;28.00;25.33;;;;;;;;4950843;28;45419;-62
2024/01/28 13:10:50;;;;;;;;;20.00;20.00;;;;;;;;4969265;28;45431;-62
2024/01/28 13:13:15;;;;;;;;;26.00;24.75;;;;;;;;4953262;28;45688;-61
2024/01/28 13:15:40;;;;;;;;;25.33;21.00;;;;;;;;4957080;28;45740;-62
2024/01/28 13:18:06;;;;;;;;;28.25;25.00;;;;;;;;4946921;28;45379;-62
2024/01/28 13:20:31;;;;;;;;;37.33;33.33;;;;;;;;4958561;28;45515;-61
2024/01/28 13:22:56;;;;;;;;;32.67;28.00;;;;;;;;4971333;28;45688;-61
2024/01/28 13:25:21;;;;;;;;;21.67;20.33;;;;;;;;4952799;28;46472;-62
2024/01/28 13:27:47;;;;;;;;;27.00;21.00;;;;;;;;4938477;28;45453;-62
2024/01/28 13:30:12;;;;;;;;;26.25;22.75;;;;;;;;4947035;28;45463;-62
2024/01/28 13:32:37;;;;;;;;;24.00;22.33;;;;;;;;4963922;28;45703;-61
2024/01/28 13:35:06;;;;;;;;;25.25;23.50;;;;;;;;4958151;28;46075;-62
2024/01/28 13:37:31;;;;;;;;;23.25;22.50;;;;;;;;4954731;28;45609;-61
2024/01/28 13:39:56;;;;;;;;;17.75;17.75;;;;;;;;4958084;28;45448;-62
2024/01/28 13:42:21;;;;;;;;;27.00;24.00;;;;;;;;4945927;28;45707;-62
2024/01/28 13:44:47;;;;;;;;;25.00;22.67;;;;;;;;4949531;28;45563;-62
2024/01/28 13:47:12;;;;;;;;;26.50;25.00;;;;;;;;4940044;28;45358;-62
2024/01/28 13:49:37;;;;;;;;;37.25;29.25;;;;;;;;4940092;28;45394;-62
2024/01/28 13:52:04;;;;;;;;;29.33;25.33;;;;;;;;4955399;28;45403;-62
2024/01/28 13:54:30;;;;;;;;;23.75;22.75;;;;;;;;4937223;28;47338;-62
2024/01/28 13:56:55;;;;;;;;;20.00;17.75;;;;;;;;4945252;28;45424;-61
2024/01/28 13:59:20;;;;;;;;;9.00;8.33;;;;;;;;4976055;28;45578;-62
2024/01/28 14:01:45;;;;;;;;;23.00;18.75;;;;;;;;4950218;28;46593;-61
2024/01/28 14:04:10;;;;;;;;;21.00;21.00;;;;;;;;4970664;28;46440;-62
2024/01/28 14:06:36;;;;;;;;;22.50;21.25;;;;;;;;4944934;28;45560;-63
2024/01/28 14:09:01;;;;;;;;;21.75;21.75;;;;;;;;4939182;28;47206;-62
2024/01/28 14:11:27;;;;;;;;;19.50;18.00;;;;;;;;4943502;28;45772;-62